sensor_id;sensor_type;location;lat;lon;timestamp;temperature;humidity
6843;DHT22;3460;52.028;8.916;2022-09-09T00:00:24;14.00;99.90
6843;DHT22;3460;52.028;8.916;2022-09-09T00:02:57;14.10;99.90
6843;DHT22;3460;52.028;8.916;2022-09-09T00:05:31;14.00;99.90
6843;DHT22;3460;52.028;8.916;2022-09-09T00:08:03;14.10;99.90
6843;DHT22;3460;52.028;8.916;2022-09-09T00:10:34;14.10;99.90
6843;DHT22;3460;52.028;8.916;2022-09-09T00:13:12;14.10;99.90
6843;DHT22;3460;52.028;8.916;2022-09-09T00:15:50;14.00;99.90
6843;DHT22;3460;52.028;8.916;2022-09-09T00:18:25;14.00;99.90
6843;DHT22;3460;52.028;8.916;2022-09-09T00:20:58;14.10;99.90
6843;DHT22;3460;52.028;8.916;2022-09-09T00:23:29;14.20;99.90
6843;DHT22;3460;52.028;8.916;2022-09-09T00:26:03;14.40;99.90
6843;DHT22;3460;52.028;8.916;2022-09-09T00:28:36;14.50;99.90
6843;DHT22;3460;52.028;8.916;2022-09-09T00:31:12;14.50;99.90
6843;DHT22;3460;52.028;8.916;2022-09-09T00:33:40;14.50;99.90
6843;DHT22;3460;52.028;8.916;2022-09-09T00:36:13;14.60;99.90
6843;DHT22;3460;52.028;8.916;2022-09-09T00:38:43;14.60;99.90
6843;DHT22;3460;52.028;8.916;2022-09-09T00:41:14;14.60;99.90
6843;DHT22;3460;52.028;8.916;2022-09-09T00:43:49;14.60;99.90
6843;DHT22;3460;52.028;8.916;2022-09-09T00:47:04;14.60;99.90
6843;DHT22;3460;52.028;8.916;2022-09-09T00:49:39;14.50;99.90
6843;DHT22;3460;52.028;8.916;2022-09-09T00:52:22;14.50;99.90
6843;DHT22;3460;52.028;8.916;2022-09-09T00:54:59;14.50;99.90
6843;DHT22;3460;52.028;8.916;2022-09-09T00:57:30;14.40;99.90
6843;DHT22;3460;52.028;8.916;2022-09-09T01:00:15;14.40;99.90
6843;DHT22;3460;52.028;8.916;2022-09-09T01:02:52;14.40;99.90
6843;DHT22;3460;52.028;8.916;2022-09-09T01:05:24;14.40;99.90
6843;DHT22;3460;52.028;8.916;2022-09-09T01:07:52;14.50;99.90
6843;DHT22;3460;52.028;8.916;2022-09-09T01:10:25;14.50;99.90
6843;DHT22;3460;52.028;8.916;2022-09-09T01:12:54;14.50;99.90
6843;DHT22;3460;52.028;8.916;2022-09-09T01:15:25;14.50;99.90
6843;DHT22;3460;52.028;8.916;2022-09-09T01:17:59;14.50;99.90
6843;DHT22;3460;52.028;8.916;2022-09-09T01:20:30;14.50;99.90
6843;DHT22;3460;52.028;8.916;2022-09-09T01:26:18;14.40;99.90
6843;DHT22;3460;52.028;8.916;2022-09-09T01:28:47;14.40;99.90
6843;DHT22;3460;52.028;8.916;2022-09-09T01:31:21;14.30;99.90
6843;DHT22;3460;52.028;8.916;2022-09-09T01:33:49;14.20;99.90
6843;DHT22;3460;52.028;8.916;2022-09-09T01:36:21;14.20;99.90
6843;DHT22;3460;52.028;8.916;2022-09-09T01:38:51;14.30;99.90
6843;DHT22;3460;52.028;8.916;2022-09-09T01:41:19;14.20;99.90
6843;DHT22;3460;52.028;8.916;2022-09-09T01:43:46;14.20;99.90
6843;DHT22;3460;52.028;8.916;2022-09-09T01:46:13;14.00;99.90
6843;DHT22;3460;52.028;8.916;2022-09-09T01:48:40;14.00;99.90
6843;DHT22;3460;52.028;8.916;2022-09-09T01:51:08;14.00;99.90
6843;DHT22;3460;52.028;8.916;2022-09-09T01:53:35;13.90;99.90
6843;DHT22;3460;52.028;8.916;2022-09-09T01:56:10;13.80;99.90
6843;DHT22;3460;52.028;8.916;2022-09-09T01:58:50;13.70;99.90
6843;DHT22;3460;52.028;8.916;2022-09-09T02:01:27;13.70;99.90
6843;DHT22;3460;52.028;8.916;2022-09-09T02:03:57;13.60;99.90
6843;DHT22;3460;52.028;8.916;2022-09-09T02:06:28;13.50;99.90
6843;DHT22;3460;52.028;8.916;2022-09-09T02:08:57;13.50;99.90
6843;DHT22;3460;52.028;8.916;2022-09-09T02:11:27;13.50;99.90
6843;DHT22;3460;52.028;8.916;2022-09-09T02:13:57;13.50;99.90
6843;DHT22;3460;52.028;8.916;2022-09-09T02:16:28;13.50;99.90
6843;DHT22;3460;52.028;8.916;2022-09-09T02:19:01;13.60;99.90
6843;DHT22;3460;52.028;8.916;2022-09-09T02:21:30;13.70;99.90
6843;DHT22;3460;52.028;8.916;2022-09-09T02:24:03;13.70;99.90
6843;DHT22;3460;52.028;8.916;2022-09-09T02:26:31;13.80;99.90
6843;DHT22;3460;52.028;8.916;2022-09-09T02:29:03;13.80;99.90
6843;DHT22;3460;52.028;8.916;2022-09-09T02:31:34;13.90;99.90
6843;DHT22;3460;52.028;8.916;2022-09-09T02:34:03;13.90;99.90
6843;DHT22;3460;52.028;8.916;2022-09-09T02:36:33;13.90;99.90
6843;DHT22;3460;52.028;8.916;2022-09-09T02:39:01;13.90;99.90
6843;DHT22;3460;52.028;8.916;2022-09-09T02:41:32;13.80;99.90
6843;DHT22;3460;52.028;8.916;2022-09-09T02:43:59;13.80;99.90
6843;DHT22;3460;52.028;8.916;2022-09-09T02:46:46;13.80;99.90
6843;DHT22;3460;52.028;8.916;2022-09-09T02:49:23;13.80;99.90
6843;DHT22;3460;52.028;8.916;2022-09-09T02:51:58;13.70;99.90
6843;DHT22;3460;52.028;8.916;2022-09-09T02:54:28;13.70;99.90
6843;DHT22;3460;52.028;8.916;2022-09-09T02:57:02;13.70;99.90
6843;DHT22;3460;52.028;8.916;2022-09-09T02:59:31;13.60;99.90
6843;DHT22;3460;52.028;8.916;2022-09-09T03:01:59;13.70;99.90
6843;DHT22;3460;52.028;8.916;2022-09-09T03:04:26;13.60;99.90
6843;DHT22;3460;52.028;8.916;2022-09-09T03:06:53;13.50;99.90
6843;DHT22;3460;52.028;8.916;2022-09-09T03:09:20;13.60;99.90
6843;DHT22;3460;52.028;8.916;2022-09-09T03:11:46;13.60;99.90
6843;DHT22;3460;52.028;8.916;2022-09-09T03:14:14;13.60;99.90
6843;DHT22;3460;52.028;8.916;2022-09-09T03:16:42;13.60;99.90
6843;DHT22;3460;52.028;8.916;2022-09-09T03:19:10;13.70;99.90
6843;DHT22;3460;52.028;8.916;2022-09-09T03:21:36;13.60;99.90
6843;DHT22;3460;52.028;8.916;2022-09-09T03:24:04;13.50;99.90
6843;DHT22;3460;52.028;8.916;2022-09-09T03:26:32;13.60;99.90
6843;DHT22;3460;52.028;8.916;2022-09-09T03:28:59;13.60;99.90
6843;DHT22;3460;52.028;8.916;2022-09-09T03:31:27;13.70;99.90
6843;DHT22;3460;52.028;8.916;2022-09-09T03:33:55;13.70;99.90
6843;DHT22;3460;52.028;8.916;2022-09-09T03:36:25;13.80;99.90
6843;DHT22;3460;52.028;8.916;2022-09-09T03:38:53;13.80;99.90
6843;DHT22;3460;52.028;8.916;2022-09-09T03:41:20;13.80;99.90
6843;DHT22;3460;52.028;8.916;2022-09-09T03:43:49;13.90;99.90
6843;DHT22;3460;52.028;8.916;2022-09-09T03:46:16;14.00;99.90
6843;DHT22;3460;52.028;8.916;2022-09-09T03:48:42;14.00;99.90
6843;DHT22;3460;52.028;8.916;2022-09-09T03:51:09;14.00;99.90
6843;DHT22;3460;52.028;8.916;2022-09-09T03:53:37;13.90;99.90
6843;DHT22;3460;52.028;8.916;2022-09-09T03:56:05;13.80;99.90
6843;DHT22;3460;52.028;8.916;2022-09-09T03:58:33;13.80;99.90
6843;DHT22;3460;52.028;8.916;2022-09-09T04:01:02;13.80;99.90
6843;DHT22;3460;52.028;8.916;2022-09-09T04:03:29;13.80;99.90
6843;DHT22;3460;52.028;8.916;2022-09-09T04:05:58;13.90;99.90
6843;DHT22;3460;52.028;8.916;2022-09-09T04:08:25;14.00;99.90
6843;DHT22;3460;52.028;8.916;2022-09-09T04:10:54;14.00;99.90
6843;DHT22;3460;52.028;8.916;2022-09-09T04:13:23;14.00;99.90
6843;DHT22;3460;52.028;8.916;2022-09-09T04:15:51;14.00;99.90
6843;DHT22;3460;52.028;8.916;2022-09-09T04:18:18;14.00;99.90
6843;DHT22;3460;52.028;8.916;2022-09-09T04:20:46;13.90;99.90
6843;DHT22;3460;52.028;8.916;2022-09-09T04:23:12;13.90;99.90
6843;DHT22;3460;52.028;8.916;2022-09-09T04:25:44;13.90;99.90
6843;DHT22;3460;52.028;8.916;2022-09-09T04:28:13;13.90;99.90
6843;DHT22;3460;52.028;8.916;2022-09-09T04:30:40;13.90;99.90
6843;DHT22;3460;52.028;8.916;2022-09-09T04:33:07;13.90;99.90
6843;DHT22;3460;52.028;8.916;2022-09-09T04:35:34;13.90;99.90
6843;DHT22;3460;52.028;8.916;2022-09-09T04:38:01;13.90;99.90
6843;DHT22;3460;52.028;8.916;2022-09-09T04:40:28;13.90;99.90
6843;DHT22;3460;52.028;8.916;2022-09-09T04:42:57;13.90;99.90
6843;DHT22;3460;52.028;8.916;2022-09-09T04:45:25;14.00;99.90
6843;DHT22;3460;52.028;8.916;2022-09-09T04:47:52;14.00;99.90
6843;DHT22;3460;52.028;8.916;2022-09-09T04:50:19;14.00;99.90
6843;DHT22;3460;52.028;8.916;2022-09-09T04:52:46;14.00;99.90
6843;DHT22;3460;52.028;8.916;2022-09-09T04:55:12;14.00;99.90
6843;DHT22;3460;52.028;8.916;2022-09-09T04:57:39;14.00;99.90
6843;DHT22;3460;52.028;8.916;2022-09-09T05:00:07;14.00;99.90
6843;DHT22;3460;52.028;8.916;2022-09-09T05:02:38;14.00;99.90
6843;DHT22;3460;52.028;8.916;2022-09-09T05:05:05;14.00;99.90
6843;DHT22;3460;52.028;8.916;2022-09-09T05:07:32;14.00;99.90
6843;DHT22;3460;52.028;8.916;2022-09-09T05:09:58;14.00;99.90
6843;DHT22;3460;52.028;8.916;2022-09-09T05:12:25;14.00;99.90
6843;DHT22;3460;52.028;8.916;2022-09-09T05:14:52;14.00;99.90
6843;DHT22;3460;52.028;8.916;2022-09-09T05:17:19;14.00;99.90
6843;DHT22;3460;52.028;8.916;2022-09-09T05:19:46;14.00;99.90
6843;DHT22;3460;52.028;8.916;2022-09-09T05:22:17;13.90;99.90
6843;DHT22;3460;52.028;8.916;2022-09-09T05:24:44;13.90;99.90
6843;DHT22;3460;52.028;8.916;2022-09-09T05:27:10;13.90;99.90
6843;DHT22;3460;52.028;8.916;2022-09-09T05:29:37;13.90;99.90
6843;DHT22;3460;52.028;8.916;2022-09-09T05:32:04;13.90;99.90
6843;DHT22;3460;52.028;8.916;2022-09-09T05:34:31;13.90;99.90
6843;DHT22;3460;52.028;8.916;2022-09-09T05:36:59;13.90;99.90
6843;DHT22;3460;52.028;8.916;2022-09-09T05:39:25;13.90;99.90
6843;DHT22;3460;52.028;8.916;2022-09-09T05:41:52;14.00;99.90
6843;DHT22;3460;52.028;8.916;2022-09-09T05:44:18;14.00;99.90
6843;DHT22;3460;52.028;8.916;2022-09-09T05:46:45;14.00;99.90
6843;DHT22;3460;52.028;8.916;2022-09-09T05:49:12;14.00;99.90
6843;DHT22;3460;52.028;8.916;2022-09-09T05:51:41;14.10;99.90
6843;DHT22;3460;52.028;8.916;2022-09-09T05:54:10;14.20;99.90
6843;DHT22;3460;52.028;8.916;2022-09-09T05:56:40;14.30;99.90
6843;DHT22;3460;52.028;8.916;2022-09-09T05:59:06;14.30;99.90
6843;DHT22;3460;52.028;8.916;2022-09-09T06:01:35;14.40;99.90
6843;DHT22;3460;52.028;8.916;2022-09-09T06:04:03;14.50;99.90
6843;DHT22;3460;52.028;8.916;2022-09-09T06:06:32;14.60;99.90
6843;DHT22;3460;52.028;8.916;2022-09-09T06:09:03;14.70;99.90
6843;DHT22;3460;52.028;8.916;2022-09-09T06:11:34;14.90;99.90
6843;DHT22;3460;52.028;8.916;2022-09-09T06:14:01;15.00;99.90
6843;DHT22;3460;52.028;8.916;2022-09-09T06:16:30;15.10;99.90
6843;DHT22;3460;52.028;8.916;2022-09-09T06:18:58;15.10;99.90
6843;DHT22;3460;52.028;8.916;2022-09-09T06:21:26;15.10;99.90
6843;DHT22;3460;52.028;8.916;2022-09-09T06:23:53;15.00;99.90
6843;DHT22;3460;52.028;8.916;2022-09-09T06:26:22;15.10;99.90
6843;DHT22;3460;52.028;8.916;2022-09-09T06:28:52;15.10;99.90
6843;DHT22;3460;52.028;8.916;2022-09-09T06:31:20;15.10;99.90
6843;DHT22;3460;52.028;8.916;2022-09-09T06:33:49;15.20;99.90
6843;DHT22;3460;52.028;8.916;2022-09-09T06:36:17;15.20;99.90
6843;DHT22;3460;52.028;8.916;2022-09-09T06:38:45;15.20;99.90
6843;DHT22;3460;52.028;8.916;2022-09-09T06:41:13;15.20;99.90
6843;DHT22;3460;52.028;8.916;2022-09-09T06:43:40;15.20;99.90
6843;DHT22;3460;52.028;8.916;2022-09-09T06:46:11;15.30;99.90
6843;DHT22;3460;52.028;8.916;2022-09-09T06:48:38;15.30;99.90
6843;DHT22;3460;52.028;8.916;2022-09-09T06:51:08;15.30;99.90
6843;DHT22;3460;52.028;8.916;2022-09-09T06:53:36;15.30;99.90
6843;DHT22;3460;52.028;8.916;2022-09-09T06:56:18;15.40;99.90
6843;DHT22;3460;52.028;8.916;2022-09-09T06:58:46;15.50;99.90
6843;DHT22;3460;52.028;8.916;2022-09-09T07:01:16;15.60;99.90
6843;DHT22;3460;52.028;8.916;2022-09-09T07:03:46;15.60;99.90
6843;DHT22;3460;52.028;8.916;2022-09-09T07:06:14;15.60;99.90
6843;DHT22;3460;52.028;8.916;2022-09-09T07:08:42;15.60;99.90
6843;DHT22;3460;52.028;8.916;2022-09-09T07:11:09;15.60;99.90
6843;DHT22;3460;52.028;8.916;2022-09-09T07:13:37;15.60;99.90
6843;DHT22;3460;52.028;8.916;2022-09-09T07:16:04;15.60;99.90
6843;DHT22;3460;52.028;8.916;2022-09-09T07:18:33;15.60;99.90
6843;DHT22;3460;52.028;8.916;2022-09-09T07:21:01;15.60;99.90
6843;DHT22;3460;52.028;8.916;2022-09-09T07:23:28;15.60;99.90
6843;DHT22;3460;52.028;8.916;2022-09-09T07:25:55;15.60;99.90
6843;DHT22;3460;52.028;8.916;2022-09-09T07:28:22;15.70;99.90
6843;DHT22;3460;52.028;8.916;2022-09-09T07:30:55;15.70;99.90
6843;DHT22;3460;52.028;8.916;2022-09-09T07:33:22;15.80;99.90
6843;DHT22;3460;52.028;8.916;2022-09-09T07:35:51;15.80;99.90
6843;DHT22;3460;52.028;8.916;2022-09-09T07:38:18;15.90;99.90
6843;DHT22;3460;52.028;8.916;2022-09-09T07:40:45;15.90;99.90
6843;DHT22;3460;52.028;8.916;2022-09-09T07:43:12;16.00;99.90
6843;DHT22;3460;52.028;8.916;2022-09-09T07:45:39;16.00;99.90
6843;DHT22;3460;52.028;8.916;2022-09-09T07:48:06;16.10;99.90
6843;DHT22;3460;52.028;8.916;2022-09-09T07:50:32;16.20;99.90
6843;DHT22;3460;52.028;8.916;2022-09-09T07:53:00;16.20;99.90
6843;DHT22;3460;52.028;8.916;2022-09-09T07:55:27;16.30;99.90
6843;DHT22;3460;52.028;8.916;2022-09-09T07:57:55;16.40;99.90
6843;DHT22;3460;52.028;8.916;2022-09-09T08:00:22;16.40;99.90
6843;DHT22;3460;52.028;8.916;2022-09-09T08:02:49;16.40;99.90
6843;DHT22;3460;52.028;8.916;2022-09-09T08:05:16;16.50;99.90
6843;DHT22;3460;52.028;8.916;2022-09-09T08:07:43;16.60;99.90
6843;DHT22;3460;52.028;8.916;2022-09-09T08:10:12;16.70;99.90
6843;DHT22;3460;52.028;8.916;2022-09-09T08:12:40;16.80;99.90
6843;DHT22;3460;52.028;8.916;2022-09-09T08:15:07;16.80;99.90
6843;DHT22;3460;52.028;8.916;2022-09-09T08:17:33;16.90;99.90
6843;DHT22;3460;52.028;8.916;2022-09-09T08:20:00;17.00;99.90
6843;DHT22;3460;52.028;8.916;2022-09-09T08:22:31;17.10;99.90
6843;DHT22;3460;52.028;8.916;2022-09-09T08:24:57;17.20;99.90
6843;DHT22;3460;52.028;8.916;2022-09-09T08:27:25;17.20;99.90
6843;DHT22;3460;52.028;8.916;2022-09-09T08:29:52;17.40;99.90
6843;DHT22;3460;52.028;8.916;2022-09-09T08:32:18;17.50;99.90
6843;DHT22;3460;52.028;8.916;2022-09-09T08:34:45;17.80;99.90
6843;DHT22;3460;52.028;8.916;2022-09-09T08:37:12;17.90;99.90
6843;DHT22;3460;52.028;8.916;2022-09-09T08:39:39;18.20;99.90
6843;DHT22;3460;52.028;8.916;2022-09-09T08:42:25;18.30;99.90
6843;DHT22;3460;52.028;8.916;2022-09-09T08:45:09;18.50;99.90
6843;DHT22;3460;52.028;8.916;2022-09-09T08:47:45;18.40;99.90
6843;DHT22;3460;52.028;8.916;2022-09-09T08:50:19;18.60;99.90
6843;DHT22;3460;52.028;8.916;2022-09-09T08:52:54;18.90;99.90
6843;DHT22;3460;52.028;8.916;2022-09-09T08:55:33;19.20;99.90
6843;DHT22;3460;52.028;8.916;2022-09-09T08:58:08;19.50;99.90
6843;DHT22;3460;52.028;8.916;2022-09-09T09:00:42;19.60;99.90
6843;DHT22;3460;52.028;8.916;2022-09-09T09:03:18;19.50;99.90
6843;DHT22;3460;52.028;8.916;2022-09-09T09:05:48;19.90;99.90
6843;DHT22;3460;52.028;8.916;2022-09-09T09:08:26;20.00;99.90
6843;DHT22;3460;52.028;8.916;2022-09-09T09:10:57;19.80;99.90
6843;DHT22;3460;52.028;8.916;2022-09-09T09:13:34;19.50;99.90
6843;DHT22;3460;52.028;8.916;2022-09-09T09:16:13;19.50;99.90
6843;DHT22;3460;52.028;8.916;2022-09-09T09:18:40;19.70;99.90
6843;DHT22;3460;52.028;8.916;2022-09-09T09:21:12;19.70;99.90
6843;DHT22;3460;52.028;8.916;2022-09-09T09:23:44;19.50;99.90
6843;DHT22;3460;52.028;8.916;2022-09-09T09:26:12;19.40;99.90
6843;DHT22;3460;52.028;8.916;2022-09-09T09:28:40;19.40;99.90
6843;DHT22;3460;52.028;8.916;2022-09-09T09:31:09;19.30;99.90
6843;DHT22;3460;52.028;8.916;2022-09-09T09:33:44;19.30;99.90
6843;DHT22;3460;52.028;8.916;2022-09-09T09:36:12;19.30;99.90
6843;DHT22;3460;52.028;8.916;2022-09-09T09:38:52;19.60;99.90
6843;DHT22;3460;52.028;8.916;2022-09-09T09:41:29;19.80;99.90
6843;DHT22;3460;52.028;8.916;2022-09-09T09:43:56;20.10;99.90
6843;DHT22;3460;52.028;8.916;2022-09-09T09:46:25;20.40;99.90
6843;DHT22;3460;52.028;8.916;2022-09-09T09:49:00;20.40;99.90
6843;DHT22;3460;52.028;8.916;2022-09-09T09:51:28;20.60;99.90
6843;DHT22;3460;52.028;8.916;2022-09-09T09:54:06;20.60;99.90
6843;DHT22;3460;52.028;8.916;2022-09-09T09:56:35;20.80;99.90
6843;DHT22;3460;52.028;8.916;2022-09-09T09:59:03;20.70;99.90
6843;DHT22;3460;52.028;8.916;2022-09-09T10:01:32;20.60;99.90
6843;DHT22;3460;52.028;8.916;2022-09-09T10:04:01;20.30;99.90
6843;DHT22;3460;52.028;8.916;2022-09-09T10:06:32;20.10;99.90
6843;DHT22;3460;52.028;8.916;2022-09-09T10:09:01;20.00;99.90
6843;DHT22;3460;52.028;8.916;2022-09-09T10:11:41;20.00;99.90
6843;DHT22;3460;52.028;8.916;2022-09-09T10:14:19;19.90;99.90
6843;DHT22;3460;52.028;8.916;2022-09-09T10:16:56;19.80;99.90
6843;DHT22;3460;52.028;8.916;2022-09-09T10:19:30;19.70;99.90
6843;DHT22;3460;52.028;8.916;2022-09-09T10:22:08;19.50;99.90
6843;DHT22;3460;52.028;8.916;2022-09-09T10:24:57;19.30;99.90
6843;DHT22;3460;52.028;8.916;2022-09-09T10:27:32;19.10;99.90
6843;DHT22;3460;52.028;8.916;2022-09-09T10:30:09;19.00;99.90
6843;DHT22;3460;52.028;8.916;2022-09-09T10:32:43;18.70;99.90
6843;DHT22;3460;52.028;8.916;2022-09-09T10:35:19;18.60;99.90
6843;DHT22;3460;52.028;8.916;2022-09-09T10:38:15;18.60;99.90
6843;DHT22;3460;52.028;8.916;2022-09-09T10:40:48;18.50;99.90
6843;DHT22;3460;52.028;8.916;2022-09-09T10:43:32;18.50;99.90
6843;DHT22;3460;52.028;8.916;2022-09-09T10:46:09;18.60;99.90
6843;DHT22;3460;52.028;8.916;2022-09-09T10:48:52;18.60;99.90
6843;DHT22;3460;52.028;8.916;2022-09-09T10:51:33;18.60;99.90
6843;DHT22;3460;52.028;8.916;2022-09-09T10:54:21;18.90;99.90
6843;DHT22;3460;52.028;8.916;2022-09-09T10:56:54;19.30;99.90
6843;DHT22;3460;52.028;8.916;2022-09-09T10:59:25;19.40;99.90
6843;DHT22;3460;52.028;8.916;2022-09-09T11:01:57;19.40;99.90
6843;DHT22;3460;52.028;8.916;2022-09-09T11:04:28;19.60;99.90
6843;DHT22;3460;52.028;8.916;2022-09-09T11:07:01;19.60;99.90
6843;DHT22;3460;52.028;8.916;2022-09-09T11:09:35;19.50;99.90
6843;DHT22;3460;52.028;8.916;2022-09-09T11:12:03;19.60;99.90
6843;DHT22;3460;52.028;8.916;2022-09-09T11:14:34;19.80;99.90
6843;DHT22;3460;52.028;8.916;2022-09-09T11:17:10;19.80;99.90
6843;DHT22;3460;52.028;8.916;2022-09-09T11:19:39;19.80;99.90
6843;DHT22;3460;52.028;8.916;2022-09-09T11:22:08;19.90;99.90
6843;DHT22;3460;52.028;8.916;2022-09-09T11:24:45;20.00;99.90
6843;DHT22;3460;52.028;8.916;2022-09-09T11:27:15;19.90;99.90
6843;DHT22;3460;52.028;8.916;2022-09-09T11:30:06;19.90;99.90
6843;DHT22;3460;52.028;8.916;2022-09-09T11:35:50;20.50;99.90
6843;DHT22;3460;52.028;8.916;2022-09-09T11:38:26;20.40;99.90
6843;DHT22;3460;52.028;8.916;2022-09-09T11:40:59;20.30;99.90
6843;DHT22;3460;52.028;8.916;2022-09-09T11:43:30;20.30;99.90
6843;DHT22;3460;52.028;8.916;2022-09-09T11:46:01;20.30;99.90
6843;DHT22;3460;52.028;8.916;2022-09-09T11:48:32;20.40;99.90
6843;DHT22;3460;52.028;8.916;2022-09-09T11:51:02;20.40;99.90
6843;DHT22;3460;52.028;8.916;2022-09-09T11:53:31;20.50;99.90
6843;DHT22;3460;52.028;8.916;2022-09-09T11:56:03;20.30;99.90
6843;DHT22;3460;52.028;8.916;2022-09-09T11:58:36;20.30;99.90
6843;DHT22;3460;52.028;8.916;2022-09-09T12:01:26;20.40;99.90
6843;DHT22;3460;52.028;8.916;2022-09-09T12:06:50;20.60;99.90
6843;DHT22;3460;52.028;8.916;2022-09-09T12:09:23;20.80;99.90
6843;DHT22;3460;52.028;8.916;2022-09-09T12:11:51;20.70;99.90
6843;DHT22;3460;52.028;8.916;2022-09-09T12:14:23;20.70;99.90
6843;DHT22;3460;52.028;8.916;2022-09-09T12:17:09;20.50;99.90
6843;DHT22;3460;52.028;8.916;2022-09-09T12:19:37;20.50;99.90
6843;DHT22;3460;52.028;8.916;2022-09-09T12:22:07;20.40;99.90
6843;DHT22;3460;52.028;8.916;2022-09-09T12:24:43;20.20;99.90
6843;DHT22;3460;52.028;8.916;2022-09-09T12:27:19;20.10;99.90
6843;DHT22;3460;52.028;8.916;2022-09-09T12:29:51;19.90;99.90
6843;DHT22;3460;52.028;8.916;2022-09-09T12:32:24;19.70;99.90
6843;DHT22;3460;52.028;8.916;2022-09-09T12:34:54;19.60;99.90
6843;DHT22;3460;52.028;8.916;2022-09-09T12:37:28;19.60;99.90
6843;DHT22;3460;52.028;8.916;2022-09-09T12:39:57;19.60;99.90
6843;DHT22;3460;52.028;8.916;2022-09-09T12:42:26;19.60;99.90
6843;DHT22;3460;52.028;8.916;2022-09-09T12:44:57;19.60;99.90
6843;DHT22;3460;52.028;8.916;2022-09-09T12:47:30;19.60;99.90
6843;DHT22;3460;52.028;8.916;2022-09-09T12:50:01;19.70;99.90
6843;DHT22;3460;52.028;8.916;2022-09-09T12:52:31;19.80;99.90
6843;DHT22;3460;52.028;8.916;2022-09-09T12:55:01;19.90;99.90
6843;DHT22;3460;52.028;8.916;2022-09-09T12:57:33;20.20;99.90
6843;DHT22;3460;52.028;8.916;2022-09-09T13:00:11;20.50;99.90
6843;DHT22;3460;52.028;8.916;2022-09-09T13:02:46;20.70;99.90
6843;DHT22;3460;52.028;8.916;2022-09-09T13:05:19;20.90;99.90
6843;DHT22;3460;52.028;8.916;2022-09-09T13:07:47;21.30;99.90
6843;DHT22;3460;52.028;8.916;2022-09-09T13:10:23;21.40;99.90
6843;DHT22;3460;52.028;8.916;2022-09-09T13:12:52;21.40;99.90
6843;DHT22;3460;52.028;8.916;2022-09-09T13:15:21;21.40;99.90
6843;DHT22;3460;52.028;8.916;2022-09-09T13:17:53;21.30;99.90
6843;DHT22;3460;52.028;8.916;2022-09-09T13:20:23;21.40;99.90
6843;DHT22;3460;52.028;8.916;2022-09-09T13:22:51;21.50;99.90
6843;DHT22;3460;52.028;8.916;2022-09-09T13:25:22;21.60;99.90
6843;DHT22;3460;52.028;8.916;2022-09-09T13:27:57;21.60;99.90
6843;DHT22;3460;52.028;8.916;2022-09-09T13:30:26;21.60;99.90
6843;DHT22;3460;52.028;8.916;2022-09-09T13:33:20;21.60;99.90
6843;DHT22;3460;52.028;8.916;2022-09-09T13:35:51;21.40;99.90
6843;DHT22;3460;52.028;8.916;2022-09-09T13:38:20;21.30;99.90
6843;DHT22;3460;52.028;8.916;2022-09-09T13:40:54;21.20;99.90
6843;DHT22;3460;52.028;8.916;2022-09-09T13:43:24;21.20;99.90
6843;DHT22;3460;52.028;8.916;2022-09-09T13:45:55;21.00;99.90
6843;DHT22;3460;52.028;8.916;2022-09-09T13:48:23;21.00;99.90
6843;DHT22;3460;52.028;8.916;2022-09-09T13:50:56;20.90;99.90
6843;DHT22;3460;52.028;8.916;2022-09-09T13:53:23;20.90;99.90
6843;DHT22;3460;52.028;8.916;2022-09-09T13:55:50;20.80;99.90
6843;DHT22;3460;52.028;8.916;2022-09-09T13:58:18;20.60;99.90
6843;DHT22;3460;52.028;8.916;2022-09-09T14:00:45;20.50;99.90
6843;DHT22;3460;52.028;8.916;2022-09-09T14:03:12;20.30;99.90
6843;DHT22;3460;52.028;8.916;2022-09-09T14:05:39;20.40;99.90
6843;DHT22;3460;52.028;8.916;2022-09-09T14:08:11;20.40;99.90
6843;DHT22;3460;52.028;8.916;2022-09-09T14:10:39;20.50;99.90
6843;DHT22;3460;52.028;8.916;2022-09-09T14:13:05;20.60;99.90
6843;DHT22;3460;52.028;8.916;2022-09-09T14:15:33;20.70;99.90
6843;DHT22;3460;52.028;8.916;2022-09-09T14:18:00;20.90;99.90
6843;DHT22;3460;52.028;8.916;2022-09-09T14:20:27;21.00;99.90
6843;DHT22;3460;52.028;8.916;2022-09-09T14:22:54;20.90;99.90
6843;DHT22;3460;52.028;8.916;2022-09-09T14:25:24;21.00;99.90
6843;DHT22;3460;52.028;8.916;2022-09-09T14:27:51;21.20;99.90
6843;DHT22;3460;52.028;8.916;2022-09-09T14:30:18;21.10;99.90
6843;DHT22;3460;52.028;8.916;2022-09-09T14:32:44;21.20;99.90
6843;DHT22;3460;52.028;8.916;2022-09-09T14:35:11;21.30;99.90
6843;DHT22;3460;52.028;8.916;2022-09-09T14:37:38;21.20;99.90
6843;DHT22;3460;52.028;8.916;2022-09-09T14:40:06;21.40;99.90
6843;DHT22;3460;52.028;8.916;2022-09-09T14:42:34;21.50;99.90
6843;DHT22;3460;52.028;8.916;2022-09-09T14:45:01;21.60;99.90
6843;DHT22;3460;52.028;8.916;2022-09-09T14:47:28;21.60;99.90
6843;DHT22;3460;52.028;8.916;2022-09-09T14:49:55;21.50;99.90
6843;DHT22;3460;52.028;8.916;2022-09-09T14:52:22;21.40;99.90
6843;DHT22;3460;52.028;8.916;2022-09-09T14:54:48;21.40;99.90
6843;DHT22;3460;52.028;8.916;2022-09-09T14:57:15;21.30;99.90
6843;DHT22;3460;52.028;8.916;2022-09-09T14:59:43;21.30;99.90
6843;DHT22;3460;52.028;8.916;2022-09-09T15:02:10;21.50;99.90
6843;DHT22;3460;52.028;8.916;2022-09-09T15:04:38;21.70;99.90
6843;DHT22;3460;52.028;8.916;2022-09-09T15:07:05;21.80;99.90
6843;DHT22;3460;52.028;8.916;2022-09-09T15:09:31;21.90;99.90
6843;DHT22;3460;52.028;8.916;2022-09-09T15:11:58;21.80;99.90
6843;DHT22;3460;52.028;8.916;2022-09-09T15:14:26;21.70;99.90
6843;DHT22;3460;52.028;8.916;2022-09-09T15:16:54;21.60;99.90
6843;DHT22;3460;52.028;8.916;2022-09-09T15:19:21;21.40;99.90
6843;DHT22;3460;52.028;8.916;2022-09-09T15:21:47;21.20;99.90
6843;DHT22;3460;52.028;8.916;2022-09-09T15:24:14;21.20;99.90
6843;DHT22;3460;52.028;8.916;2022-09-09T15:26:41;21.10;99.90
6843;DHT22;3460;52.028;8.916;2022-09-09T15:29:08;21.10;99.90
6843;DHT22;3460;52.028;8.916;2022-09-09T15:31:35;21.00;99.90
6843;DHT22;3460;52.028;8.916;2022-09-09T15:34:05;21.00;99.90
6843;DHT22;3460;52.028;8.916;2022-09-09T15:36:33;20.90;99.90
6843;DHT22;3460;52.028;8.916;2022-09-09T15:39:01;20.90;99.90
6843;DHT22;3460;52.028;8.916;2022-09-09T15:41:28;20.90;99.90
6843;DHT22;3460;52.028;8.916;2022-09-09T15:43:57;20.90;99.90
6843;DHT22;3460;52.028;8.916;2022-09-09T15:46:27;20.80;99.90
6843;DHT22;3460;52.028;8.916;2022-09-09T15:48:55;20.80;99.90
6843;DHT22;3460;52.028;8.916;2022-09-09T15:51:25;20.80;99.90
6843;DHT22;3460;52.028;8.916;2022-09-09T15:53:54;20.80;99.90
6843;DHT22;3460;52.028;8.916;2022-09-09T15:56:22;20.70;99.90
6843;DHT22;3460;52.028;8.916;2022-09-09T15:58:49;20.70;99.90
6843;DHT22;3460;52.028;8.916;2022-09-09T16:01:18;20.70;99.90
6843;DHT22;3460;52.028;8.916;2022-09-09T16:03:45;20.70;99.90
6843;DHT22;3460;52.028;8.916;2022-09-09T16:06:13;20.70;99.90
6843;DHT22;3460;52.028;8.916;2022-09-09T16:08:43;20.60;99.90
6843;DHT22;3460;52.028;8.916;2022-09-09T16:11:12;20.60;99.90
6843;DHT22;3460;52.028;8.916;2022-09-09T16:13:41;20.60;99.90
6843;DHT22;3460;52.028;8.916;2022-09-09T16:16:10;20.70;99.90
6843;DHT22;3460;52.028;8.916;2022-09-09T16:18:39;20.70;99.90
6843;DHT22;3460;52.028;8.916;2022-09-09T16:21:06;20.60;99.90
6843;DHT22;3460;52.028;8.916;2022-09-09T16:23:33;20.60;99.90
6843;DHT22;3460;52.028;8.916;2022-09-09T16:26:01;20.50;99.90
6843;DHT22;3460;52.028;8.916;2022-09-09T16:28:28;20.40;99.90
6843;DHT22;3460;52.028;8.916;2022-09-09T16:30:55;20.40;99.90